Time;durP1;ratioP1;P1;durP2;ratioP2;P2;SDS_P1;SDS_P2;PMS_P1;PMS_P2;Temp;Humidity;BMP_temperature;BMP_pressure;BME280_temperature;BME280_humidity;BME280_pressure;Samples;Min_cycle;Max_cycle;Signal;HPM_P1;HPM_P2
2023/04/28 00:02:00;;;;;;;0.90;0.30;;;;;;;7.27;100.00;99367.69;108274;1265;61117;-51
2023/04/28 00:04:27;;;;;;;2.20;0.30;;;;;;;7.27;100.00;99368.92;108240;1265;60919;-51
2023/04/28 00:06:54;;;;;;;2.30;0.30;;;;;;;7.26;100.00;99367.73;108164;1270;75774;-51
2023/04/28 00:09:21;;;;;;;1.80;0.40;;;;;;;7.23;100.00;99367.26;108014;1265;67178;-49
2023/04/28 00:11:48;;;;;;;1.30;0.30;;;;;;;7.23;100.00;99368.04;103925;1267;74503;-50
2023/04/28 00:14:15;;;;;;;0.60;0.30;;;;;;;7.20;100.00;99373.13;104151;1267;60512;-51
2023/04/28 00:16:42;;;;;;;0.80;0.40;;;;;;;7.17;100.00;99375.40;104396;1264;61337;-51
2023/04/28 00:19:09;;;;;;;1.20;0.30;;;;;;;7.14;100.00;99380.67;104368;1267;73458;-52
2023/04/28 00:21:36;;;;;;;3.10;0.40;;;;;;;7.12;100.00;99381.66;104407;1262;67432;-50
2023/04/28 00:24:03;;;;;;;2.40;0.40;;;;;;;7.10;100.00;99386.91;104354;1267;72620;-51
2023/04/28 00:26:29;;;;;;;1.40;0.30;;;;;;;7.09;100.00;99389.46;104328;1264;60903;-47
2023/04/28 00:28:56;;;;;;;2.10;0.30;;;;;;;7.08;100.00;99394.83;104276;1262;61873;-50
2023/04/28 00:31:23;;;;;;;0.80;0.20;;;;;;;7.09;100.00;99396.77;104258;1262;74563;-51
2023/04/28 00:33:50;;;;;;;0.60;0.20;;;;;;;7.11;100.00;99398.82;104197;1262;67364;-51
2023/04/28 00:36:17;;;;;;;0.60;0.40;;;;;;;7.11;100.00;99397.92;106765;1263;74958;-51
2023/04/28 00:38:44;;;;;;;4.00;0.40;;;;;;;7.13;100.00;99401.61;104311;1265;62458;-50
2023/04/28 00:41:11;;;;;;;0.70;0.20;;;;;;;7.12;100.00;99396.29;104550;1262;59739;-50
2023/04/28 00:43:47;;;;;;;2.50;0.60;;;;;;;7.11;100.00;99398.30;104451;1264;75189;-51
2023/04/28 00:46:23;;;;;;;2.30;0.30;;;;;;;7.09;100.00;99408.88;105197;1261;68952;-51
2023/04/28 00:48:50;;;;;;;2.70;0.40;;;;;;;7.07;100.00;99407.73;105196;1258;71747;-51
2023/04/28 00:51:17;;;;;;;0.70;0.20;;;;;;;7.04;100.00;99411.59;104479;1259;59741;-51
2023/04/28 00:53:44;;;;;;;0.80;0.20;;;;;;;7.04;100.00;99419.12;104566;1264;62184;-52
2023/04/28 00:56:11;;;;;;;1.90;0.40;;;;;;;7.01;100.00;99421.17;104675;1262;75267;-51
2023/04/28 00:58:38;;;;;;;1.50;0.30;;;;;;;6.99;100.00;99426.77;104713;1262;67634;-51
2023/04/28 01:01:06;;;;;;;1.60;0.30;;;;;;;6.98;100.00;99434.33;104553;1262;73564;-51
2023/04/28 01:03:38;;;;;;;0.50;0.30;;;;;;;6.96;100.00;99432.25;104892;1259;62215;-49
2023/04/28 01:06:07;;;;;;;3.10;0.40;;;;;;;6.94;100.00;99434.10;105455;1259;63411;-49
2023/04/28 01:08:35;;;;;;;0.50;0.30;;;;;;;6.93;100.00;99429.70;104912;1258;75333;-50
2023/04/28 01:11:02;;;;;;;1.00;0.20;;;;;;;6.92;100.00;99428.48;104506;1260;68479;-50
2023/04/28 01:13:48;;;;;;;1.20;0.30;;;;;;;6.93;100.00;99429.68;104739;1261;71624;-51
2023/04/28 01:16:15;;;;;;;1.10;0.30;;;;;;;6.95;100.00;99433.70;104564;1261;59740;-52
2023/04/28 01:18:45;;;;;;;0.70;0.30;;;;;;;6.97;100.00;99432.39;104578;1257;59753;-51
2023/04/28 01:21:12;;;;;;;0.90;0.40;;;;;;;6.98;100.00;99437.49;104369;1256;71298;-52
2023/04/28 01:23:40;;;;;;;2.90;0.30;;;;;;;6.99;100.00;99442.13;104526;1257;69724;-52
2023/04/28 01:26:06;;;;;;;2.30;0.40;;;;;;;6.98;100.00;99440.38;104529;1259;75037;-52
2023/04/28 01:28:33;;;;;;;6.30;0.50;;;;;;;6.98;100.00;99436.65;104517;1258;60101;-51
2023/04/28 01:31:00;;;;;;;1.50;0.20;;;;;;;6.97;100.00;99438.66;104573;1257;61606;-51
2023/04/28 01:33:27;;;;;;;1.30;0.40;;;;;;;6.95;100.00;99435.67;104667;1256;73844;-50
2023/04/28 01:35:57;;;;;;;0.70;0.30;;;;;;;6.93;100.00;99438.25;104458;1257;66408;-52
2023/04/28 01:38:24;;;;;;;4.60;0.30;;;;;;;6.90;100.00;99441.55;104572;1260;74394;-52
2023/04/28 01:40:53;;;;;;;1.60;0.40;;;;;;;6.88;100.00;99450.61;104441;1260;59729;-51
2023/04/28 01:43:20;;;;;;;1.40;0.30;;;;;;;6.85;100.00;99451.05;104544;1257;60328;-48
2023/04/28 01:45:47;;;;;;;0.70;0.30;;;;;;;6.82;100.00;99448.64;104071;1257;73320;-50
2023/04/28 01:48:13;;;;;;;0.90;0.40;;;;;;;6.80;100.00;99451.61;103909;1256;68965;-49
2023/04/28 01:50:40;;;;;;;1.20;0.30;;;;;;;6.77;100.00;99448.13;104380;1261;73516;-51
2023/04/28 01:53:07;;;;;;;0.80;0.20;;;;;;;6.76;100.00;99445.84;104461;1260;60502;-49
2023/04/28 01:55:34;;;;;;;1.30;0.50;;;;;;;6.74;100.00;99443.08;104332;1262;59676;-48
2023/04/28 01:58:01;;;;;;;1.10;0.30;;;;;;;6.72;100.00;99443.87;104585;1258;73517;-49
2023/04/28 02:00:28;;;;;;;1.80;0.20;;;;;;;6.70;100.00;99446.61;104747;1257;68767;-46
2023/04/28 02:02:55;;;;;;;3.60;0.40;;;;;;;6.69;100.00;99448.27;104488;1257;73348;-50
2023/04/28 02:05:22;;;;;;;0.80;0.20;;;;;;;6.68;100.00;99447.58;104818;1256;59639;-50
2023/04/28 02:07:49;;;;;;;1.80;0.30;;;;;;;6.69;100.00;99449.00;104627;1263;60026;-48
2023/04/28 02:10:16;;;;;;;0.60;0.30;;;;;;;6.69;100.00;99450.60;104533;1256;75965;-49
2023/04/28 02:12:43;;;;;;;0.50;0.20;;;;;;;6.68;100.00;99453.11;104505;1261;66474;-48
2023/04/28 02:15:10;;;;;;;2.50;0.30;;;;;;;6.67;100.00;99456.35;104440;1256;74022;-51
2023/04/28 02:17:36;;;;;;;1.70;0.30;;;;;;;6.66;100.00;99456.75;104499;1256;59990;-53
2023/04/28 02:20:04;;;;;;;0.90;0.30;;;;;;;6.64;100.00;99457.72;104421;1256;60799;-50
2023/04/28 02:22:31;;;;;;;1.60;0.60;;;;;;;6.61;100.00;99458.56;104676;1261;75173;-47
2023/04/28 02:24:58;;;;;;;1.00;0.30;;;;;;;6.58;100.00;99461.34;104761;1259;67681;-46
2023/04/28 02:27:24;;;;;;;1.10;0.40;;;;;;;6.55;100.00;99460.73;104698;1258;71638;-46
2023/04/28 02:29:52;;;;;;;0.60;0.20;;;;;;;6.52;100.00;99459.08;104366;1258;60579;-51
2023/04/28 02:32:20;;;;;;;0.50;0.30;;;;;;;6.46;100.00;99464.98;107527;1256;60516;-49
2023/04/28 02:34:54;;;;;;;0.70;0.30;;;;;;;6.41;100.00;99464.81;104754;1256;71900;-49
2023/04/28 02:37:21;;;;;;;0.70;0.40;;;;;;;6.35;100.00;99465.37;108294;1256;68919;-52
2023/04/28 02:39:49;;;;;;;1.10;0.70;;;;;;;6.31;100.00;99467.13;108460;1256;77048;-50
2023/04/28 02:42:16;;;;;;;0.90;0.30;;;;;;;6.26;100.00;99467.49;108582;1256;60294;-49
2023/04/28 02:44:42;;;;;;;1.40;0.40;;;;;;;6.23;100.00;99465.80;108515;1256;60644;-51
2023/04/28 02:47:09;;;;;;;1.50;0.40;;;;;;;6.21;100.00;99471.39;108578;1261;74266;-50
2023/04/28 02:49:36;;;;;;;3.90;0.40;;;;;;;6.20;100.00;99474.49;108526;1256;68904;-48
2023/04/28 02:52:03;;;;;;;1.70;0.40;;;;;;;6.20;100.00;99480.19;108494;1256;74155;-52
2023/04/28 02:54:31;;;;;;;1.50;0.50;;;;;;;6.20;100.00;99479.99;108561;1256;60936;-51
2023/04/28 02:56:58;;;;;;;1.10;0.40;;;;;;;6.22;100.00;99480.27;108484;1256;62747;-49
2023/04/28 02:59:26;;;;;;;1.50;0.40;;;;;;;6.23;100.00;99484.68;108599;1256;74511;-49
2023/04/28 03:01:52;;;;;;;2.00;0.40;;;;;;;6.25;100.00;99491.05;108461;1257;68892;-49
2023/04/28 03:04:19;;;;;;;0.70;0.40;;;;;;;6.25;100.00;99493.02;108571;1256;74484;-49
2023/04/28 03:06:47;;;;;;;0.60;0.40;;;;;;;6.24;100.00;99498.56;108522;1256;60369;-48
2023/04/28 03:09:14;;;;;;;0.80;0.30;;;;;;;6.22;100.00;99504.67;108543;1256;60323;-52
2023/04/28 03:11:41;;;;;;;2.00;0.40;;;;;;;6.19;100.00;99506.41;108582;1257;74711;-49
2023/04/28 03:14:08;;;;;;;5.20;0.30;;;;;;;6.17;100.00;99513.60;108456;1258;65940;-51
2023/04/28 03:16:34;;;;;;;1.40;0.40;;;;;;;6.16;100.00;99514.88;108571;1258;71257;-51
2023/04/28 03:19:02;;;;;;;2.20;0.40;;;;;;;6.14;100.00;99517.98;108439;1256;58536;-50
2023/04/28 03:21:29;;;;;;;0.60;0.30;;;;;;;6.11;100.00;99521.30;104443;1259;62110;-47
2023/04/28 03:23:55;;;;;;;3.40;0.40;;;;;;;6.08;100.00;99520.11;104277;1256;74365;-50
2023/04/28 03:26:23;;;;;;;3.10;0.30;;;;;;;6.07;100.00;99525.50;105327;1257;69147;-48
2023/04/28 03:28:50;;;;;;;0.80;0.40;;;;;;;6.05;100.00;99528.95;104202;1257;75099;-51
2023/04/28 03:31:17;;;;;;;0.90;0.80;;;;;;;6.03;100.00;99533.69;104298;1257;60540;-48
2023/04/28 03:33:45;;;;;;;2.60;0.30;;;;;;;6.01;100.00;99536.95;104442;1256;62776;-48
2023/04/28 03:36:13;;;;;;;3.90;0.60;;;;;;;5.97;100.00;99540.64;104032;1258;72251;-50
2023/04/28 03:38:40;;;;;;;2.50;0.40;;;;;;;5.93;100.00;99545.05;104121;1261;66236;-49
2023/04/28 03:41:07;;;;;;;2.60;0.40;;;;;;;5.90;100.00;99546.90;105067;1257;74168;-51
2023/04/28 03:43:36;;;;;;;4.40;0.30;;;;;;;5.87;100.00;99548.08;104414;1261;60520;-48
2023/04/28 03:46:14;;;;;;;0.60;0.30;;;;;;;5.84;100.00;99550.66;104340;1257;62616;-50
2023/04/28 03:48:40;;;;;;;0.60;0.30;;;;;;;5.83;100.00;99551.22;104156;1257;78223;-49
2023/04/28 03:51:07;;;;;;;1.40;0.30;;;;;;;5.82;100.00;99548.40;105769;1257;69286;-48
2023/04/28 03:53:34;;;;;;;0.70;0.30;;;;;;;5.82;100.00;99553.92;104195;1261;72315;-50
2023/04/28 03:56:01;;;;;;;2.60;0.40;;;;;;;5.80;100.00;99552.72;104117;1261;60503;-49
2023/04/28 03:58:28;;;;;;;0.60;0.40;;;;;;;5.77;100.00;99551.77;104175;1257;60222;-48
2023/04/28 04:00:55;;;;;;;2.20;0.40;;;;;;;5.76;100.00;99556.61;104273;1256;72375;-52
2023/04/28 04:03:24;;;;;;;1.00;0.30;;;;;;;5.75;100.00;99556.47;105253;1257;68316;-52
2023/04/28 04:05:54;;;;;;;0.60;0.30;;;;;;;5.73;100.00;99558.48;104640;1258;75811;-51
2023/04/28 04:08:21;;;;;;;3.60;0.40;;;;;;;5.69;100.00;99561.45;104199;1256;61858;-49
2023/04/28 04:10:48;;;;;;;2.30;0.40;;;;;;;5.66;100.00;99561.71;104180;1264;60492;-48
2023/04/28 04:13:15;;;;;;;1.30;0.30;;;;;;;5.65;100.00;99563.52;104182;1257;76102;-49
2023/04/28 04:15:42;;;;;;;0.90;0.50;;;;;;;5.67;100.00;99564.72;104231;1256;66294;-49
2023/04/28 04:18:10;;;;;;;0.70;0.40;;;;;;;5.73;100.00;99564.52;104227;1261;73693;-49
2023/04/28 04:20:56;;;;;;;0.80;0.30;;;;;;;5.87;100.00;99561.42;104307;1262;61779;-47
2023/04/28 04:23:23;;;;;;;0.80;0.30;;;;;;;6.09;100.00;99561.26;105027;1257;61493;-48
2023/04/28 04:25:50;;;;;;;3.00;0.30;;;;;;;6.35;100.00;99557.87;104409;1258;73802;-52
2023/04/28 04:28:17;;;;;;;2.10;0.30;;;;;;;6.60;100.00;99554.32;104319;1262;67374;-52
2023/04/28 04:30:44;;;;;;;2.20;0.30;;;;;;;6.84;100.00;99559.18;104017;1259;73660;-50
2023/04/28 04:33:10;;;;;;;1.30;0.30;;;;;;;7.00;100.00;99556.27;104864;1257;61497;-49
2023/04/28 04:35:37;;;;;;;0.70;0.30;;;;;;;7.07;100.00;99556.02;104524;1259;62444;-48
2023/04/28 04:38:04;;;;;;;1.30;0.30;;;;;;;7.07;100.00;99553.33;104539;1258;72340;-48
2023/04/28 04:40:31;;;;;;;0.70;0.30;;;;;;;7.01;100.00;99555.86;104425;1262;67420;-49
2023/04/28 04:42:58;;;;;;;2.00;0.30;;;;;;;6.98;100.00;99559.53;104393;1261;74601;-50
2023/04/28 04:45:26;;;;;;;1.30;0.40;;;;;;;6.95;100.00;99558.42;104244;1259;60436;-51
2023/04/28 04:47:53;;;;;;;5.10;0.40;;;;;;;6.91;100.00;99558.90;104341;1257;60869;-50
2023/04/28 04:50:20;;;;;;;0.40;0.30;;;;;;;6.91;100.00;99562.64;104341;1262;74201;-52
2023/04/28 04:52:47;;;;;;;0.80;0.40;;;;;;;6.92;100.00;99562.98;104298;1258;68983;-48
2023/04/28 04:55:14;;;;;;;1.10;0.30;;;;;;;6.90;100.00;99562.15;104384;1257;72903;-48
2023/04/28 04:57:41;;;;;;;0.50;0.20;;;;;;;6.91;100.00;99564.98;104416;1260;61344;-51
2023/04/28 05:00:28;;;;;;;4.10;0.70;;;;;;;6.94;100.00;99568.43;104201;1261;60619;-48
2023/04/28 05:02:55;;;;;;;2.10;0.30;;;;;;;6.96;100.00;99573.02;104310;1262;76672;-52
2023/04/28 05:05:22;;;;;;;3.00;0.30;;;;;;;6.99;100.00;99574.48;105885;1257;68699;-52
2023/04/28 05:08:01;;;;;;;3.70;0.40;;;;;;;7.04;100.00;99577.19;104168;1264;73995;-50
2023/04/28 05:10:28;;;;;;;0.30;0.30;;;;;;;7.05;100.00;99578.73;105651;1258;60470;-48
2023/04/28 05:12:54;;;;;;;0.60;0.30;;;;;;;7.08;100.00;99582.16;104222;1257;61625;-49
2023/04/28 05:15:21;;;;;;;0.70;0.30;;;;;;;7.09;100.00;99582.16;104282;1259;73873;-49
2023/04/28 05:18:10;;;;;;;0.50;0.30;;;;;;;7.07;100.00;99577.21;104126;1257;69156;-51
2023/04/28 05:20:37;;;;;;;2.00;0.30;;;;;;;7.06;100.00;99576.17;104062;1262;72044;-49
2023/04/28 05:23:04;;;;;;;1.00;0.30;;;;;;;7.07;100.00;99575.78;103798;1260;60593;-50
2023/04/28 05:25:31;;;;;;;1.80;0.30;;;;;;;7.08;100.00;99572.37;104246;1259;60343;-52
2023/04/28 05:28:03;;;;;;;1.80;0.30;;;;;;;7.10;100.00;99573.36;104004;1259;75612;-51
2023/04/28 05:30:30;;;;;;;1.30;0.40;;;;;;;7.11;100.00;99574.58;104026;1264;68222;-52
2023/04/28 05:32:57;;;;;;;1.80;0.30;;;;;;;7.14;100.00;99578.56;106023;1259;73542;-49
2023/04/28 05:35:25;;;;;;;1.00;0.40;;;;;;;7.18;100.00;99582.71;103879;1260;60477;-51
2023/04/28 05:37:52;;;;;;;0.60;0.30;;;;;;;7.18;100.00;99584.85;104142;1259;60536;-53
2023/04/28 05:40:19;;;;;;;0.70;0.40;;;;;;;7.20;100.00;99586.20;104244;1261;75762;-49
2023/04/28 05:42:46;;;;;;;0.70;0.30;;;;;;;7.26;100.00;99585.98;104173;1259;68250;-52
2023/04/28 05:45:13;;;;;;;1.50;0.30;;;;;;;7.33;100.00;99583.02;104475;1264;73420;-50
2023/04/28 05:47:40;;;;;;;1.90;0.30;;;;;;;7.42;100.00;99582.86;108689;1263;62032;-50
2023/04/28 05:50:08;;;;;;;1.80;0.30;;;;;;;7.51;100.00;99584.65;108680;1259;62617;-50
2023/04/28 05:52:35;;;;;;;3.20;0.20;;;;;;;7.61;100.00;99586.79;108655;1261;74551;-50
2023/04/28 05:55:02;;;;;;;0.40;0.30;;;;;;;7.70;100.00;99578.02;108655;1259;69294;-52
2023/04/28 05:57:29;;;;;;;1.80;0.40;;;;;;;7.79;100.00;99576.42;108598;1263;71655;-47
2023/04/28 06:00:08;;;;;;;1.40;0.30;;;;;;;7.90;100.00;99571.52;108627;1261;61924;-47
2023/04/28 06:02:38;;;;;;;1.20;0.30;;;;;;;8.02;100.00;99574.95;108764;1259;60959;-47
2023/04/28 06:05:06;;;;;;;0.60;0.30;;;;;;;8.14;100.00;99573.75;108740;1258;76083;-47
2023/04/28 06:07:33;;;;;;;1.80;0.20;;;;;;;8.24;100.00;99568.15;108680;1258;66766;-48
2023/04/28 06:10:00;;;;;;;0.90;0.40;;;;;;;8.30;100.00;99565.20;108480;1258;72568;-48
2023/04/28 06:12:26;;;;;;;1.90;0.20;;;;;;;8.37;100.00;99565.81;108671;1259;60101;-47
2023/04/28 06:14:54;;;;;;;0.40;0.20;;;;;;;8.45;100.00;99566.58;108553;1258;60099;-49
2023/04/28 06:17:21;;;;;;;0.80;0.40;;;;;;;8.55;100.00;99560.25;108664;1258;75140;-48
2023/04/28 06:19:50;;;;;;;2.60;0.20;;;;;;;8.63;100.00;99561.12;108663;1258;68038;-47
2023/04/28 06:22:16;;;;;;;0.40;0.20;;;;;;;8.70;100.00;99558.31;104724;1264;74321;-49
2023/04/28 06:24:46;;;;;;;0.50;0.20;;;;;;;8.77;100.00;99560.89;104437;1264;60551;-50
2023/04/28 06:27:17;;;;;;;0.80;0.20;;;;;;;8.84;100.00;99565.39;108628;1259;60499;-52
2023/04/28 06:29:44;;;;;;;0.90;0.30;;;;;;;8.90;100.00;99564.45;107826;1259;74928;-48
2023/04/28 06:32:10;;;;;;;1.40;0.20;;;;;;;8.93;100.00;99569.51;104823;1259;66780;-48
2023/04/28 06:34:37;;;;;;;0.40;0.30;;;;;;;8.95;100.00;99568.83;104362;1264;74728;-49
2023/04/28 06:37:05;;;;;;;1.00;0.20;;;;;;;9.00;100.00;99574.00;104621;1259;63111;-49
2023/04/28 06:39:32;;;;;;;13.70;0.30;;;;;;;9.03;100.00;99569.55;107671;1261;59767;-47
2023/04/28 06:42:01;;;;;;;0.30;0.20;;;;;;;9.07;100.00;99569.73;104754;1258;74853;-46
2023/04/28 06:44:28;;;;;;;2.80;0.30;;;;;;;9.12;100.00;99570.92;104960;1258;67590;-48
2023/04/28 06:46:55;;;;;;;0.60;0.30;;;;;;;9.17;100.00;99568.92;104348;1265;73015;-50
2023/04/28 06:49:22;;;;;;;0.30;0.20;;;;;;;9.23;100.00;99566.85;104705;1264;60546;-47
2023/04/28 06:51:48;;;;;;;0.50;0.30;;;;;;;9.30;100.00;99574.58;104539;1264;60388;-52
2023/04/28 06:54:15;;;;;;;1.00;0.30;;;;;;;9.37;100.00;99567.80;104560;1259;76531;-49
2023/04/28 06:56:43;;;;;;;3.00;0.20;;;;;;;9.45;100.00;99576.59;104381;1259;69269;-49
2023/04/28 06:59:09;;;;;;;3.10;0.20;;;;;;;9.54;100.00;99571.90;104527;1263;72023;-52
2023/04/28 07:01:36;;;;;;;2.60;0.20;;;;;;;9.62;100.00;99575.78;104982;1264;61164;-48
2023/04/28 07:04:03;;;;;;;2.40;0.30;;;;;;;9.66;100.00;99574.33;104980;1259;62592;-52
2023/04/28 07:06:31;;;;;;;0.20;0.20;;;;;;;9.71;100.00;99571.40;104868;1259;75208;-51
2023/04/28 07:08:58;;;;;;;2.10;0.20;;;;;;;9.71;100.00;99571.91;104983;1263;66399;-47
2023/04/28 07:11:24;;;;;;;0.30;0.20;;;;;;;9.72;100.00;99569.02;105259;1258;72778;-53
2023/04/28 07:13:51;;;;;;;0.30;0.10;;;;;;;9.73;100.00;99576.67;105220;1259;60857;-49
2023/04/28 07:16:18;;;;;;;0.70;0.20;;;;;;;9.79;100.00;99573.38;104798;1260;60397;-49
2023/04/28 07:18:45;;;;;;;1.40;0.30;;;;;;;9.87;100.00;99574.92;105560;1256;74406;-52
2023/04/28 07:21:12;;;;;;;3.70;0.20;;;;;;;9.97;100.00;99574.09;104887;1260;68109;-52
2023/04/28 07:23:39;;;;;;;1.80;0.20;;;;;;;10.07;100.00;99581.15;104908;1256;73155;-49
2023/04/28 07:26:07;;;;;;;2.00;0.30;;;;;;;10.14;100.00;99582.02;104623;1258;63330;-52
2023/04/28 07:28:34;;;;;;;0.70;0.30;;;;;;;10.18;100.00;99582.96;104531;1260;62207;-53
2023/04/28 07:31:01;;;;;;;1.40;0.20;;;;;;;10.20;100.00;99580.90;104973;1255;75929;-52
2023/04/28 07:33:28;;;;;;;0.30;0.20;;;;;;;10.24;100.00;99581.05;104734;1259;68955;-51
2023/04/28 07:35:54;;;;;;;1.00;0.20;;;;;;;10.31;100.00;99583.60;104660;1260;74594;-50
2023/04/28 07:38:21;;;;;;;0.50;0.20;;;;;;;10.36;100.00;99580.43;104545;1256;60412;-49
2023/04/28 07:40:48;;;;;;;2.00;0.20;;;;;;;10.42;100.00;99583.38;104585;1254;60439;-50
2023/04/28 07:43:15;;;;;;;0.40;0.30;;;;;;;10.49;100.00;99586.21;104708;1254;73810;-50
2023/04/28 07:45:44;;;;;;;0.50;0.20;;;;;;;10.55;100.00;99584.10;104647;1261;68493;-52
2023/04/28 07:48:11;;;;;;;0.20;0.20;;;;;;;10.59;100.00;99586.09;104891;1256;72541;-50
2023/04/28 07:50:38;;;;;;;0.30;0.10;;;;;;;10.61;100.00;99586.34;104792;1254;62514;-47
2023/04/28 07:53:05;;;;;;;1.40;0.20;;;;;;;10.60;100.00;99580.45;104824;1253;61502;-49
2023/04/28 07:55:31;;;;;;;2.00;0.30;;;;;;;10.60;100.00;99586.73;105044;1254;72974;-53
2023/04/28 07:57:58;;;;;;;0.30;0.20;;;;;;;10.64;100.00;99586.40;104820;1258;65131;-51
2023/04/28 08:00:25;;;;;;;0.30;0.10;;;;;;;10.70;100.00;99589.34;104729;1258;71602;-48
2023/04/28 08:02:52;;;;;;;0.20;0.10;;;;;;;10.75;100.00;99590.48;105086;1260;61291;-51
2023/04/28 08:05:19;;;;;;;0.40;0.20;;;;;;;10.77;100.00;99590.89;104871;1254;60713;-49
2023/04/28 08:07:46;;;;;;;0.60;0.20;;;;;;;10.79;100.00;99582.18;107513;1258;75812;-50
2023/04/28 08:10:13;;;;;;;1.50;0.20;;;;;;;10.82;100.00;99584.17;104680;1258;65818;-51
2023/04/28 08:12:40;;;;;;;3.20;0.20;;;;;;;10.86;100.00;99586.48;104569;1258;74506;-50
2023/04/28 08:15:08;;;;;;;1.60;0.20;;;;;;;10.89;100.00;99580.04;104455;1259;60579;-46
2023/04/28 08:17:35;;;;;;;2.00;0.20;;;;;;;10.92;100.00;99577.70;107013;1254;61580;-49
2023/04/28 08:20:02;;;;;;;1.90;0.30;;;;;;;10.98;100.00;99582.80;104719;1260;75365;-46
2023/04/28 08:22:29;;;;;;;2.50;0.20;;;;;;;11.03;100.00;99579.85;105004;1255;69180;-48
2023/04/28 08:24:56;;;;;;;1.60;0.20;;;;;;;11.10;100.00;99582.86;104891;1256;71018;-47
2023/04/28 08:27:24;;;;;;;1.40;0.10;;;;;;;11.19;100.00;99589.75;104552;1259;61144;-50
2023/04/28 08:29:51;;;;;;;2.10;0.10;;;;;;;11.25;100.00;99592.30;108541;1254;59920;-48
2023/04/28 08:32:18;;;;;;;1.40;0.30;;;;;;;11.29;100.00;99591.56;105025;1256;72397;-51
2023/04/28 08:34:45;;;;;;;1.00;0.20;;;;;;;11.33;100.00;99583.08;104746;1259;69238;-45
2023/04/28 08:37:12;;;;;;;1.90;0.20;;;;;;;11.36;100.00;99576.63;104979;1256;73668;-48
2023/04/28 08:39:39;;;;;;;0.40;0.10;;;;;;;11.40;100.00;99581.45;104803;1254;61121;-51
2023/04/28 08:42:05;;;;;;;0.40;0.30;;;;;;;11.44;100.00;99587.33;104790;1261;60716;-48
2023/04/28 08:44:39;;;;;;;0.60;0.10;;;;;;;11.42;100.00;99582.95;104697;1256;72413;-51
2023/04/28 08:47:11;;;;;;;3.60;0.10;;;;;;;11.37;100.00;99584.47;105896;1256;69734;-50
2023/04/28 08:52:20;;;;;;;0.30;0.20;;;;;;;11.36;100.00;99587.92;102248;1297;601266;-50
2023/04/28 08:54:47;;;;;;;0.20;0.10;;;;;;;11.32;100.00;99582.90;104439;1279;59444;-47
2023/04/28 08:57:14;;;;;;;3.60;0.20;;;;;;;11.32;100.00;99584.90;104104;1272;61380;-50
2023/04/28 08:59:40;;;;;;;0.20;0.20;;;;;;;11.33;100.00;99579.27;104029;1275;72689;-48
2023/04/28 09:02:08;;;;;;;0.30;0.20;;;;;;;11.36;100.00;99581.30;104398;1267;67517;-47
2023/04/28 09:04:35;;;;;;;0.80;0.10;;;;;;;11.41;100.00;99583.16;108119;1267;73074;-51
2023/04/28 09:07:02;;;;;;;0.40;0.10;;;;;;;11.46;100.00;99579.67;108106;1264;195935;-50
2023/04/28 09:09:29;;;;;;;0.50;0.20;;;;;;;11.52;100.00;99575.77;106013;1267;60530;-50
2023/04/28 09:12:02;;;;;;;0.40;0.20;;;;;;;11.56;100.00;99576.61;108340;1264;72352;-49
2023/04/28 09:14:31;;;;;;;3.00;0.30;;;;;;;11.61;100.00;99577.57;108147;1264;67390;-49
2023/04/28 09:16:58;;;;;;;0.20;0.10;;;;;;;11.68;100.00;99578.80;108272;1264;73384;-47
2023/04/28 09:19:35;;;;;;;4.10;0.30;;;;;;;11.73;100.00;99584.29;108280;1264;59352;-47
2023/04/28 09:22:02;;;;;;;2.80;0.40;;;;;;;11.75;100.00;99583.44;108336;1264;60171;-49
2023/04/28 09:24:49;;;;;;;0.80;0.20;;;;;;;11.75;100.00;99581.66;106248;1264;74292;-49
2023/04/28 09:27:17;;;;;;;0.30;0.20;;;;;;;11.74;100.00;99582.95;104595;1264;67462;-49
2023/04/28 09:29:51;;;;;;;2.70;0.30;;;;;;;11.73;100.00;99581.20;104468;1270;74796;-47
2023/04/28 09:32:21;;;;;;;0.70;0.10;;;;;;;11.70;100.00;99581.90;108321;1264;60212;-50
2023/04/28 09:34:50;;;;;;;1.10;0.30;;;;;;;11.68;100.00;99574.29;108341;1263;61321;-50
2023/04/28 09:37:18;;;;;;;1.20;0.20;;;;;;;11.66;100.00;99574.98;108122;1264;74207;-53
2023/04/28 09:39:46;;;;;;;0.70;0.20;;;;;;;11.61;100.00;99571.64;105182;1269;68674;-49
2023/04/28 09:42:38;;;;;;;0.30;0.20;;;;;;;11.63;100.00;99567.74;104977;1269;73149;-52
2023/04/28 09:45:12;;;;;;;1.90;0.30;;;;;;;11.72;100.00;99565.13;104598;1271;60954;-49
2023/04/28 09:47:40;;;;;;;3.40;0.30;;;;;;;11.82;100.00;99559.02;104885;1269;59937;-47
2023/04/28 09:50:10;;;;;;;0.20;0.10;;;;;;;11.89;100.00;99562.58;104495;1264;73528;-48
2023/04/28 09:52:37;;;;;;;0.90;0.30;;;;;;;11.96;100.00;99565.42;104942;1264;70009;-50
2023/04/28 09:55:06;;;;;;;0.30;0.20;;;;;;;11.98;100.00;99564.92;104603;1264;71436;-49
2023/04/28 09:57:33;;;;;;;0.30;0.20;;;;;;;12.00;100.00;99567.11;108255;1265;60641;-51
2023/04/28 10:00:01;;;;;;;0.50;0.20;;;;;;;12.04;100.00;99563.30;104937;1267;61497;-49
2023/04/28 10:02:30;;;;;;;0.30;0.10;;;;;;;12.11;100.00;99562.76;104525;1269;75395;-51
2023/04/28 10:05:09;;;;;;;2.70;0.20;;;;;;;12.19;100.00;99557.76;104484;1270;68703;-50
2023/04/28 10:07:37;;;;;;;0.30;0.20;;;;;;;12.23;100.00;99550.88;104493;1265;74837;-49
2023/04/28 10:10:06;;;;;;;2.20;0.20;;;;;;;12.28;100.00;99557.97;104848;1264;60683;-49
2023/04/28 10:12:33;;;;;;;0.40;0.10;;;;;;;12.30;100.00;99561.43;105266;1264;62291;-49
2023/04/28 10:15:00;;;;;;;1.40;0.20;;;;;;;12.27;100.00;99552.61;104808;1269;74492;-50
2023/04/28 10:17:28;;;;;;;0.80;0.20;;;;;;;12.26;100.00;99553.95;104505;1273;68164;-47
2023/04/28 10:19:56;;;;;;;0.80;0.30;;;;;;;12.28;100.00;99562.08;104845;1267;72860;-50
2023/04/28 10:22:42;;;;;;;1.60;0.30;;;;;;;12.29;100.00;99564.77;103965;1267;61853;-51
2023/04/28 10:25:31;;;;;;;0.40;0.20;;;;;;;12.27;100.00;99567.39;104086;1271;59616;-52
2023/04/28 10:27:58;;;;;;;0.60;0.20;;;;;;;12.27;100.00;99561.60;104527;1267;73014;-51
2023/04/28 10:30:27;;;;;;;3.60;0.10;;;;;;;12.27;100.00;99561.63;105265;1269;67039;-48
2023/04/28 10:33:05;;;;;;;1.20;0.20;;;;;;;12.24;100.00;99567.06;106233;1264;73811;-48
2023/04/28 10:35:35;;;;;;;0.80;0.20;;;;;;;12.18;100.00;99573.89;105118;1270;60742;-48
2023/04/28 10:38:12;;;;;;;1.60;0.30;;;;;;;12.11;100.00;99574.02;104987;1270;61543;-47
2023/04/28 10:40:43;;;;;;;0.20;0.10;;;;;;;12.07;100.00;99573.91;104920;1270;71824;-47
2023/04/28 10:43:38;;;;;;;0.90;0.20;;;;;;;12.04;100.00;99569.23;108190;1264;67134;-48
2023/04/28 10:46:06;;;;;;;0.40;0.20;;;;;;;12.05;100.00;99570.64;106140;1269;70796;-49
2023/04/28 10:48:33;;;;;;;0.50;0.20;;;;;;;12.08;100.00;99574.91;104622;1265;60923;-49
2023/04/28 10:53:43;;;;;;;1.80;0.20;;;;;;;12.10;100.00;99567.80;104830;1268;73682;-48
2023/04/28 10:56:15;;;;;;;0.80;0.10;;;;;;;12.13;100.00;99563.49;104695;1270;67058;-51
2023/04/28 10:58:44;;;;;;;1.10;0.20;;;;;;;12.25;100.00;99573.46;104968;1265;73470;-51
2023/04/28 11:01:21;;;;;;;1.10;0.20;;;;;;;12.37;100.00;99571.12;107315;1267;60662;-49
2023/04/28 11:04:06;;;;;;;1.80;0.10;;;;;;;12.49;100.00;99564.83;104649;1264;60289;-52
2023/04/28 11:06:34;;;;;;;1.60;0.20;;;;;;;12.60;100.00;99560.00;104883;1266;73552;-48
2023/04/28 11:09:11;;;;;;;2.00;0.20;;;;;;;12.64;100.00;99559.27;105116;1270;65877;-50
2023/04/28 11:11:39;;;;;;;2.30;0.10;;;;;;;12.70;100.00;99562.83;104572;1264;73905;-48
2023/04/28 11:14:19;;;;;;;0.30;0.10;;;;;;;12.74;100.00;99559.34;104676;1270;60762;-51
2023/04/28 11:16:50;;;;;;;0.50;0.10;;;;;;;12.72;100.00;99558.21;104529;1270;62003;-52
2023/04/28 11:19:23;;;;;;;0.40;0.20;;;;;;;12.65;100.00;99553.98;104921;1269;75025;-47
2023/04/28 11:21:50;;;;;;;0.30;0.10;;;;;;;12.62;100.00;99551.99;108105;1264;67401;-52
2023/04/28 11:24:18;;;;;;;0.30;0.10;;;;;;;12.61;100.00;99558.16;108022;1267;71148;-52
2023/04/28 11:26:45;;;;;;;0.90;0.20;;;;;;;12.56;100.00;99553.98;106347;1267;61292;-45
2023/04/28 11:29:13;;;;;;;0.70;0.20;;;;;;;12.49;100.00;99553.99;104479;1267;60219;-47
2023/04/28 11:31:48;;;;;;;1.40;0.30;;;;;;;12.51;100.00;99547.73;104557;1270;72338;-49
2023/04/28 11:34:18;;;;;;;1.00;0.10;;;;;;;12.59;100.00;99539.40;104676;1266;68546;-51